Latest Weather Observations for Macquarie Island

IDT60801

Issued at 4:05 pm EST Thursday 24 July 2014 (issued every 30 minutes, with the page automatically refreshed every 10 minutes)

About weather observations | Map of weather stations | Latest weather observations for TAS | Other Formats
Station Details ID: 300004 Name: MACQUARIE ISLAND Lat: -54.50 Lon: 158.94 Height: 6.0 m
Data from the previous 72 hours. | See also: Recent months at Macquarie Island
Date/Time
EST
Temp
°C
App
Temp
°C
Dew
Point
Rel
Hum
%
Delta-T
°C
Wind Press
QNH
hPa
Press
MSL
hPa
Rain
since 9 am
mm
Dir
 
Spd
km/h
Gust
km/h
Spd
kts
Gust
kts
24/04:00pm 2.9 -3.2 0.5 84 0.9 WSW 22 48 12 26 1000.8 - 0.6
24/03:30pm 3.1 -4.6 -0.2 79 1.2 SW 30 57 16 31 1000.4 - 0.6
24/03:05pm 3.1 -5.5 0.0 80 1.2 SW 35 54 19 29 999.8 - 0.6
24/03:04pm 3.1 -5.9 0.3 82 1.0 SW 37 54 20 29 999.7 - 0.6
24/03:00pm 2.9 -4.4 0.1 82 1.0 W 28 59 15 32 999.7 1000.0 0.6
24/02:32pm 3.2 -5.1 -0.1 79 1.2 WSW 33 54 18 29 999.1 - 0.4
24/02:30pm 3.3 -6.1 0.2 80 1.2 W 39 61 21 33 999.0 - 0.4
24/02:00pm 3.4 -4.3 0.1 79 1.2 W 30 52 16 28 998.2 - 0.4
24/01:48pm 3.1 -5.9 0.2 81 1.1 W 37 63 20 34 997.9 - 0.4
24/01:30pm 2.5 -6.3 -0.9 78 1.2 WSW 35 59 19 32 998.0 - 0.4
24/01:00pm 3.0 -4.7 -0.3 79 1.2 W 30 56 16 30 997.5 - 0.4
24/12:32pm 3.6 -6.7 0.3 79 1.2 W 44 63 24 34 996.7 - 0.2
24/12:30pm 3.8 -6.8 0.7 80 1.2 W 46 59 25 32 996.7 - 0.2
24/12:01pm 3.4 -6.8 -0.4 76 1.4 W 43 67 23 36 996.5 - 0.2
24/12:00pm 3.5 -6.2 0.4 80 1.2 W 41 56 22 30 996.7 997.0 0.2
24/11:30am 3.2 -7.9 0.3 81 1.1 W 48 67 26 36 996.5 - 0.2
24/11:00am 3.1 -8.8 0.0 80 1.2 W 52 74 28 40 996.4 - 0.2
24/10:30am 3.4 -7.6 0.5 81 1.1 W 48 70 26 38 996.3 - 0.2
24/10:00am 3.2 -7.4 0.8 84 0.9 W 46 70 25 38 995.8 - 0.2
24/09:30am 3.7 -7.7 0.4 79 1.2 W 50 70 27 38 995.4 - 0.2
24/09:00am 3.1 -9.6 0.8 85 0.9 W 57 76 31 41 995.4 995.7 3.6
24/08:30am 3.3 -8.8 0.9 84 0.9 W 54 89 29 48 995.0 - 3.6
24/08:00am 3.5 -8.6 1.1 84 0.9 W 54 78 29 42 994.7 - 3.6
24/07:37am 3.7 -9.7 1.4 85 0.9 W 61 80 33 43 994.4 - 3.6
24/07:30am 3.8 -9.2 1.5 85 0.9 W 59 76 32 41 994.4 - 3.6
24/07:05am 4.3 -8.5 2.2 86 0.8 W 59 83 32 45 994.0 - 3.6
24/07:00am 4.4 -8.4 2.4 87 0.8 W 59 74 32 40 993.9 - 3.6
24/06:43am 4.8 -7.2 3.5 91 0.5 W 56 74 30 40 993.3 - 3.6
24/06:30am 4.7 -6.6 3.2 90 0.6 W 52 63 28 34 993.5 - 3.6
24/06:00am 4.8 -7.0 2.8 87 0.8 W 54 67 29 36 993.3 993.6 3.6
24/05:30am 4.9 -7.3 3.6 91 0.5 W 57 74 31 40 992.9 - 3.6
24/05:22am 4.9 -5.9 3.9 93 0.4 W 50 74 27 40 992.8 - 3.6
24/05:00am 5.1 -4.9 4.1 93 0.4 WNW 46 59 25 32 992.6 - 3.6
24/04:30am 5.4 -5.3 4.7 95 0.3 NW 50 59 27 32 992.5 - 3.4
24/04:00am 5.3 -5.0 4.6 95 0.3 NW 48 57 26 31 992.9 - 2.8
24/03:30am 5.3 -4.6 4.6 95 0.3 NW 46 56 25 30 993.5 - 2.4
24/03:00am 5.2 -4.8 4.5 95 0.3 NW 46 56 25 30 994.1 994.4 2.2
24/02:30am 5.1 -4.5 4.5 96 0.3 NW 44 54 24 29 994.8 - 2.2
24/02:26am 5.0 -5.0 4.4 96 0.3 NW 46 52 25 28 994.9 - 2.2
24/02:19am 4.9 -4.5 4.3 96 0.3 N 43 50 23 27 995.0 - 2.2
24/02:00am 4.5 -3.5 3.9 96 0.3 NW 35 46 19 25 995.5 - 2.2
24/01:30am 3.9 -5.7 3.2 95 0.3 NNW 43 48 23 26 996.5 - 2.2
24/01:23am 3.8 -5.9 3.1 95 0.3 NNW 43 48 23 26 996.6 - 2.2
24/01:00am 3.6 -6.2 2.4 92 0.5 WNW 43 54 23 29 997.1 - 2.2
24/12:30am 3.8 -6.1 1.8 87 0.8 WNW 43 54 23 29 997.4 - 2.2
24/12:00am 3.9 -5.7 0.9 81 1.2 W 41 50 22 27 998.2 998.5 2.2
 
Date/Time
EST
Temp
°C
App
Temp
°C
Dew
Point
Rel
Hum
%
Delta-T
°C
Wind Press
QNH
hPa
Press
MSL
hPa
Rain
since 9 am
mm
Dir
 
Spd
km/h
Gust
km/h
Spd
kts
Gust
kts
23/11:30pm 3.9 -6.1 0.9 81 1.2 W 43 52 23 28 998.8 - 2.2
23/11:00pm 3.7 -6.5 0.9 82 1.1 W 44 54 24 29 999.1 - 2.2
23/10:36pm 3.4 -6.2 1.0 84 0.9 W 41 59 22 32 999.1 - 2.2
23/10:30pm 3.3 -6.7 1.0 85 0.9 W 43 56 23 30 999.2 - 2.2
23/10:00pm 3.4 -7.8 -0.4 76 1.4 W 48 61 26 33 999.5 - 2.0
23/09:38pm 3.1 -7.2 0.2 81 1.1 W 44 63 24 34 999.6 - 2.0
23/09:30pm 3.0 -7.7 0.4 83 1.0 W 46 59 25 32 999.6 - 2.0
23/09:00pm 3.1 -8.4 -0.4 78 1.3 W 50 69 27 37 999.6 999.9 2.0
23/08:30pm 2.6 -8.2 -0.2 82 1.0 W 46 70 25 38 999.5 - 2.0
23/08:02pm 2.9 -9.7 0.3 83 1.0 W 56 87 30 47 999.4 - 2.0
23/08:00pm 2.9 -9.7 0.0 81 1.1 W 56 72 30 39 999.4 - 2.0
23/07:30pm 2.2 -9.6 0.4 88 0.7 W 52 76 28 41 999.3 - 2.0
23/07:00pm 2.3 -10.3 0.4 87 0.7 W 56 76 30 41 998.8 - 1.8
23/06:30pm 2.4 -9.4 0.1 85 0.8 W 52 76 28 41 999.0 - 1.6
23/06:00pm 2.2 -9.3 0.1 86 0.8 W 50 82 27 44 998.8 999.1 1.4
23/05:30pm 3.0 -9.7 -0.6 77 1.3 W 56 78 30 42 998.6 - 1.2
23/05:00pm 3.2 -9.8 -1.0 74 1.5 W 57 80 31 43 998.5 - 1.2
23/04:30pm 3.0 -11.2 -1.5 72 1.6 W 63 93 34 50 997.8 - 1.2
23/04:00pm 3.2 -10.9 -1.2 73 1.6 W 63 95 34 51 997.9 - 1.2
23/03:30pm 3.2 -10.6 -1.7 70 1.7 W 61 91 33 49 997.6 - 1.2
23/03:00pm 3.3 -10.8 -1.4 71 1.7 W 63 91 34 49 997.7 998.0 1.2
23/02:30pm 3.0 -11.6 -1.7 71 1.7 W 65 89 35 48 997.7 - 1.2
23/02:02pm 3.4 -10.3 -1.2 72 1.7 W 61 80 33 43 997.5 - 1.2
23/02:00pm 3.3 -10.8 -1.3 72 1.7 W 63 80 34 43 997.5 - 1.2
23/01:30pm 3.0 -13.4 -2.9 65 2.0 W 74 100 40 54 997.9 - 1.2
23/01:00pm 3.0 -12.4 -2.1 69 1.8 W 69 89 37 48 997.4 - 1.2
23/12:31pm 3.0 -11.3 0.1 81 1.1 W 65 91 35 49 997.4 - 1.2
23/12:30pm 3.0 -10.9 0.2 82 1.0 W 63 76 34 41 997.4 - 1.2
23/12:11pm 2.7 -10.0 0.9 88 0.7 W 57 85 31 46 997.5 - 1.0
23/12:00pm 2.3 -11.5 0.8 90 0.6 W 63 80 34 43 997.4 997.7 1.0
23/11:42am 2.8 -10.7 0.2 83 1.0 W 61 80 33 43 997.6 - 0.2
23/11:30am 3.8 -9.7 0.3 78 1.3 W 61 74 33 40 997.5 - 0.2
23/11:08am 2.9 -11.0 0.3 83 1.0 W 63 82 34 44 998.1 - 0.2
23/11:00am 2.3 -11.3 -0.3 83 0.9 W 61 78 33 42 998.2 - 0.2
23/10:30am 3.9 -8.8 -0.3 74 1.6 W 56 74 30 40 998.3 - 0.0
23/10:00am 3.6 -8.5 0.7 81 1.1 W 54 76 29 41 998.9 - 0.0
23/09:35am 3.1 -9.6 -0.4 78 1.3 W 56 74 30 40 999.2 - 0.0
23/09:30am 3.2 -9.4 -0.1 79 1.2 W 56 67 30 36 999.3 - 0.0
23/09:08am 2.7 -8.7 0.4 85 0.9 W 50 72 27 39 999.5 - 0.0
23/09:00am 2.2 -9.3 -0.1 85 0.9 W 50 63 27 34 999.7 1000.0 2.2
23/08:30am 1.6 -11.1 0.6 93 0.4 W 57 78 31 42 1000.0 - 2.2
23/08:29am 1.6 -11.5 0.6 93 0.4 W 59 78 32 42 1000.0 - 2.0
23/08:11am 1.3 -13.1 -0.6 87 0.7 W 65 78 35 42 1000.4 - 1.4
23/08:03am 3.2 -11.3 -1.2 73 1.6 WNW 65 83 35 45 999.5 - 1.2
23/08:00am 3.4 -11.0 -0.8 74 1.5 WNW 65 80 35 43 999.4 - 1.2
23/07:30am 2.3 -9.9 0.4 87 0.7 WNW 54 72 29 39 1000.0 - 1.2
23/07:13am 2.8 -8.6 0.4 84 0.9 WNW 50 72 27 39 1000.2 - 1.2
23/07:00am 2.2 -10.6 -0.2 84 0.9 WNW 57 72 31 39 1000.6 - 1.2
23/06:31am 2.2 -8.6 -0.4 83 0.9 W 46 65 25 35 1001.2 - 1.2
23/06:30am 2.2 -8.2 -0.2 84 0.9 W 44 59 24 32 1001.2 - 1.2
23/06:02am 2.8 -8.4 -1.0 76 1.4 W 48 67 26 36 1001.1 - 1.2
23/06:00am 2.8 -8.0 -0.5 79 1.2 W 46 63 25 34 1001.2 1001.5 1.2
23/05:30am 2.5 -9.5 -0.8 79 1.2 W 52 74 28 40 1001.4 - 1.2
23/05:04am 2.3 -10.2 -1.7 75 1.4 W 54 72 29 39 1002.2 - 1.2
23/05:00am 3.2 -9.5 -3.6 61 2.3 W 54 69 29 37 1001.6 - 1.2
23/04:41am 2.7 -10.4 -3.4 64 2.1 W 56 74 30 40 1001.6 - 1.2
23/04:30am 2.5 -10.4 -2.4 70 1.7 W 56 70 30 38 1001.8 - 1.2
23/04:06am 3.0 -8.5 -2.7 66 2.0 W 48 67 26 36 1001.7 - 1.2
23/04:00am 3.0 -8.5 -2.7 66 2.0 W 48 65 26 35 1001.8 - 1.2
23/03:43am 2.9 -9.8 -3.2 64 2.1 W 54 72 29 39 1002.1 - 1.2
23/03:30am 2.8 -9.1 -3.5 63 2.1 W 50 67 27 36 1002.1 - 1.2
23/03:21am 2.9 -9.3 -2.2 69 1.8 W 52 70 28 38 1002.3 - 1.2
23/03:00am 2.9 -9.1 -3.6 62 2.2 W 50 67 27 36 1002.6 1002.9 1.2
23/02:58am 2.9 -8.7 -4.1 60 2.3 W 48 67 26 36 1002.6 - 1.2
23/02:30am 2.7 -8.5 -3.6 63 2.1 W 46 63 25 34 1003.1 - 1.2
23/02:00am 2.6 -8.3 -4.6 59 2.4 W 44 63 24 34 1003.0 - 1.2
23/01:30am 2.6 -9.9 -4.8 58 2.4 W 52 70 28 38 1003.2 - 1.2
23/01:04am 2.5 -9.6 -4.7 59 2.3 W 50 69 27 37 1003.1 - 1.2
23/01:00am 2.6 -9.8 -3.9 62 2.2 W 52 69 28 37 1003.1 - 1.2
23/12:42am 2.6 -8.1 -4.4 60 2.3 W 43 61 23 33 1002.9 - 1.2
23/12:30am 2.4 -9.0 -5.2 57 2.6 W 46 61 25 33 1002.7 - 1.2
23/12:00am 2.1 -8.8 -4.2 63 2.1 W 44 78 24 42 1002.7 1003.0 1.2
 
Date/Time
EST
Temp
°C
App
Temp
°C
Dew
Point
Rel
Hum
%
Delta-T
°C
Wind Press
QNH
hPa
Press
MSL
hPa
Rain
since 9 am
mm
Dir
 
Spd
km/h
Gust
km/h
Spd
kts
Gust
kts
22/11:31pm 2.3 -8.7 -4.9 59 2.5 W 44 63 24 34 1002.8 - 1.2
22/11:30pm 2.2 -9.2 -5.2 58 2.5 W 46 63 25 34 1002.8 - 1.2
22/11:03pm 2.2 -9.1 -4.5 61 2.2 W 46 65 25 35 1002.6 - 1.2
22/11:00pm 2.2 -9.5 -5.2 58 2.5 W 48 65 26 35 1002.6 - 1.2
22/10:30pm 2.4 -8.4 -5.5 56 2.7 W 43 72 23 39 1002.3 - 1.2
22/10:00pm 2.3 -6.3 -4.6 60 2.2 W 32 56 17 30 1002.2 - 1.2
22/09:30pm 2.4 -9.0 -5.9 54 2.8 W 46 85 25 46 1001.6 - 1.2
22/09:00pm 2.6 -7.3 -3.7 63 2.1 W 39 69 21 37 1001.3 1001.6 1.2
22/08:30pm 2.7 -7.1 -2.8 67 1.9 W 39 72 21 39 1001.2 - 1.2
22/08:00pm 2.6 -7.1 -2.1 71 1.6 W 39 76 21 41 1000.8 - 1.2
22/07:30pm 2.7 -8.0 0.3 84 0.9 W 46 65 25 35 1000.1 - 1.2
22/07:00pm 2.7 -7.5 1.1 89 0.6 W 44 76 24 41 1000.1 - 1.0
22/06:30pm 3.6 -6.2 2.1 90 0.6 W 43 76 23 41 999.7 - 0.6
22/06:22pm 3.8 -5.6 2.3 90 0.6 W 41 65 22 35 999.6 - 0.6
22/06:19pm 4.1 -9.1 2.5 89 0.6 WSW 61 80 33 43 999.5 - 0.6
22/06:18pm 4.3 -9.6 2.8 90 0.6 WSW 65 80 35 43 999.5 - 0.6
22/06:16pm 5.4 -6.6 4.5 94 0.4 WNW 57 76 31 41 998.9 - 0.6
22/06:12pm 5.8 -5.9 5.2 96 0.3 WNW 56 69 30 37 998.7 - 0.4
22/06:00pm 5.7 -5.7 5.1 96 0.3 NNW 54 67 29 36 998.5 998.8 0.2
22/05:30pm 5.6 -4.6 5.0 96 0.3 NW 48 65 26 35 998.6 - 0.0
22/05:00pm 5.5 -3.8 4.8 95 0.3 NW 43 52 23 28 999.2 - 0.0
22/04:30pm 5.5 -5.2 4.8 95 0.3 NNW 50 59 27 32 999.8 - 0.0
22/04:00pm 5.5 -5.2 4.8 95 0.3 NNW 50 57 27 31 1000.3 - 0.0
22/03:30pm 5.4 -4.9 4.7 95 0.3 NW 48 57 26 31 1000.9 - 0.0
22/03:00pm 5.5 -4.4 4.9 96 0.3 WNW 46 57 25 31 1001.2 1001.5 0.0
22/02:30pm 5.6 -3.8 5.2 97 0.2 WNW 44 56 24 30 1001.5 - 0.0
22/02:00pm 5.5 -3.8 5.1 97 0.2 NW 43 48 23 26 1001.8 - 0.0
22/01:30pm 5.4 -3.1 5.0 97 0.2 NW 39 46 21 25 1002.0 - 0.0
22/01:00pm 5.4 -3.5 5.0 97 0.2 WNW 41 50 22 27 1002.4 - 0.0
22/12:30pm 5.4 -3.6 4.8 96 0.3 WNW 41 54 22 29 1002.8 - 0.0
22/12:00pm 5.5 -3.0 5.1 97 0.2 NW 39 44 21 24 1003.2 1003.5 0.0
22/11:30am 5.4 -2.8 5.0 97 0.2 NW 37 46 20 25 1003.7 - 0.0
22/11:00am 5.4 -2.4 5.0 97 0.2 WNW 35 43 19 23 1004.4 - 0.0
22/10:30am 5.4 -2.8 5.0 97 0.2 WNW 37 44 20 24 1005.0 - 0.0
22/10:00am 5.3 -1.9 4.9 97 0.2 WNW 32 37 17 20 1005.2 - 0.0
22/09:30am 5.2 -2.3 4.6 96 0.3 WNW 33 39 18 21 1005.4 - 0.0
22/09:00am 5.3 -1.6 4.6 95 0.3 WNW 30 35 16 19 1005.5 1005.8 0.4
22/08:30am 5.2 -5.2 4.3 94 0.4 W 48 57 26 31 1005.6 - 0.4
22/08:00am 5.3 -5.1 4.4 94 0.4 W 48 59 26 32 1005.6 - 0.4
22/07:30am 5.3 -5.1 4.3 93 0.4 W 48 59 26 32 1005.4 - 0.4
22/07:00am 5.3 -4.7 4.3 93 0.4 W 46 56 25 30 1005.3 - 0.4
22/06:30am 5.2 -6.1 3.7 90 0.6 W 52 59 28 32 1005.5 - 0.4
22/06:00am 5.0 -5.5 3.7 91 0.5 W 48 57 26 31 1005.5 1005.8 0.4
22/05:30am 5.0 -5.8 4.0 93 0.4 W 50 57 27 31 1005.5 - 0.4
22/05:00am 4.9 -6.3 3.9 93 0.4 W 52 61 28 33 1005.5 - 0.4
22/04:30am 4.7 -5.8 3.5 92 0.5 W 48 57 26 31 1005.8 - 0.4
22/04:00am 4.8 -4.9 3.8 93 0.4 W 44 56 24 30 1005.9 - 0.4
22/03:30am 4.9 -4.6 3.9 93 0.4 W 43 52 23 28 1005.9 - 0.4
22/03:00am 4.8 -4.3 3.9 94 0.4 W 41 52 22 28 1005.9 1006.2 0.4
22/02:30am 4.8 -5.3 3.8 93 0.4 W 46 59 25 32 1006.2 - 0.4
22/02:00am 4.9 -4.2 3.9 93 0.4 W 41 54 22 29 1006.4 - 0.4
22/01:30am 4.8 -4.3 3.9 94 0.4 W 41 52 22 28 1006.6 - 0.4
22/01:00am 4.7 -4.4 4.0 95 0.3 W 41 50 22 27 1006.5 - 0.4
22/12:30am 4.7 -5.0 3.8 94 0.4 W 44 54 24 29 1006.6 - 0.4
22/12:00am 4.5 -5.6 3.6 94 0.4 W 46 54 25 29 1006.5 1006.8 0.4
 
Date/Time
EST
Temp
°C
App
Temp
°C
Dew
Point
Rel
Hum
%
Delta-T
°C
Wind Press
QNH
hPa
Press
MSL
hPa
Rain
since 9 am
mm
Dir
 
Spd
km/h
Gust
km/h
Spd
kts
Gust
kts
21/11:30pm 4.6 -4.6 3.7 94 0.4 W 41 48 22 26 1006.9 - 0.4
21/11:00pm 4.5 -3.9 3.6 94 0.4 W 37 44 20 24 1006.7 - 0.4
21/10:30pm 4.4 -5.2 3.4 93 0.4 W 43 52 23 28 1006.9 - 0.4
21/10:00pm 4.4 -5.7 3.5 94 0.4 W 46 56 25 30 1007.0 - 0.4
21/09:30pm 4.5 -5.0 3.8 95 0.3 W 43 52 23 28 1006.9 - 0.4
21/09:00pm 4.6 -4.9 3.7 94 0.4 W 43 50 23 27 1006.9 1007.2 0.4
21/08:30pm 4.6 -4.9 3.7 94 0.4 W 43 50 23 27 1006.7 - 0.4
21/08:00pm 4.5 -5.6 3.6 94 0.4 W 46 54 25 29 1006.6 - 0.4
21/07:30pm 4.6 -5.5 3.7 94 0.4 W 46 56 25 30 1006.4 - 0.4
21/07:00pm 4.5 -6.7 3.8 95 0.3 W 52 59 28 32 1006.3 - 0.4
21/06:30pm 4.6 -6.7 3.7 94 0.4 W 52 61 28 33 1006.3 - 0.4
21/06:00pm 4.7 -5.0 3.8 94 0.4 W 44 54 24 29 1006.5 1006.8 0.4
21/05:30pm 4.7 -4.4 4.0 95 0.3 W 41 50 22 27 1006.5 - 0.4
21/05:00pm 4.6 -3.8 3.7 94 0.4 W 37 46 20 25 1006.7 - 0.4
21/04:30pm 4.6 -3.1 3.6 93 0.4 W 33 43 18 23 1006.6 - 0.4

Other Formats:

Comma delimited format used in spreadsheet applications
http://www.bom.gov.au/fwo/IDT60801/IDT60801.94998.axf

JavaScript Object Notation format (JSON) in row-major order
http://www.bom.gov.au/fwo/IDT60801/IDT60801.94998.json